Fure West — OZ2100 — position and weather

sailwx.info

Track history (hours):
 
Tides and Currents Weather Stations Pressure Air Temp Water Temp Dewpoint Dewpoint Depression Visibility Wind Speed Wind Dir Waves Ship Positions

Fure West

Last reported at 2015-May-24 04:33 UTC. Time now 2015-May-24 05:19 UTC.
Position N 49°28' E 000°07'.

Length 144 m; draft 6.1 m.

Type: Tanker. MMSI: 231775000.

Date/timePositionNaut miles runAvg speedWind from/ knotsBaromVisibWave heightAir tempDewpointWater temp
2015-May-24 04:33N 49°28' E 000°07'0 0.0
2015-May-24 03:33N 49°28' E 000°07'0 0.0
2015-May-24 02:33N 49°28' E 000°07'0 0.0
2015-May-24 01:33N 49°28' E 000°07'0 0.0
2015-May-24 00:33N 49°28' E 000°07'0 0.0
2015-May-23 23:33N 49°28' E 000°07'0 0.0
2015-May-23 22:33N 49°28' E 000°07'0 0.0
2015-May-23 21:33N 49°28' E 000°07'0 0.0
2015-May-23 20:33N 49°28' E 000°07'0 0.0
2015-May-23 19:33N 49°28' E 000°07'0 0.0
2015-May-23 18:30N 49°28' E 000°07'0 0.0
2015-May-23 17:33N 49°28' E 000°07'0 0.0
2015-May-23 16:33N 49°28' E 000°07'0 0.0
2015-May-23 15:33N 49°28' E 000°07'0 0.0
2015-May-23 14:33N 49°28' E 000°07'0 0.0
2015-May-23 13:33N 49°28' E 000°07'0 0.0
2015-May-23 12:33N 49°28' E 000°07'0 0.2
2015-May-23 11:33N 49°28' E 000°07'6 6.0
2015-May-23 10:33N 49°29' W 000°02'0 0.1
2015-May-23 09:33N 49°29' W 000°02'0 0.1
2015-May-23 08:33N 49°29' W 000°02'0 0.0
2015-May-23 07:33N 49°29' W 000°02'0 0.0
2015-May-23 06:33N 49°29' W 000°02'0 0.1
2015-May-23 05:31N 49°29' W 000°02'0 0.1
2015-May-23 04:31N 49°29' W 000°02'0 0.1
2015-May-23 03:31N 49°29' W 000°02'0 0.0
2015-May-23 02:31N 49°29' W 000°02'0 0.0
2015-May-23 01:31N 49°29' W 000°02'0 0.0
2015-May-23 00:31N 49°29' W 000°02'0 0.0
2015-May-22 23:31N 49°29' W 000°02'0 0.1
2015-May-22 22:31N 49°29' W 000°02'0 0.0
2015-May-22 21:31N 49°29' W 000°02'0 0.1
2015-May-22 20:31N 49°29' W 000°02'0 0.1
2015-May-22 19:31N 49°29' W 000°02'0 0.0
2015-May-22 18:31N 49°29' W 000°02'0 0.0
2015-May-22 17:31N 49°29' W 000°02'0 0.1
2015-May-22 16:31N 49°29' W 000°02'0 0.0
2015-May-22 15:31N 49°29' W 000°02'3 3.6
2015-May-22 14:33N 49°31' W 000°07'1413.7
2015-May-22 13:33N 49°45' W 000°10'47 9.2
2015-May-22 08:28N 50°30' E 000°08'1010.6
2015-May-22 07:34N 50°33' E 000°23'1111.0
2015-May-22 06:34N 50°37' E 000°39'1110.6
2015-May-22 05:33N 50°43' E 000°52'11 9.7
2015-May-22 04:28N 50°49' E 001°06'8 8.9
2015-May-22 03:33N 50°54' E 001°16'7 7.5
2015-May-22 02:34N 50°59' E 001°24'7 7.0
2015-May-22 01:34N 51°04' E 001°32'8 7.8
2015-May-22 00:34N 51°10' E 001°41'10 9.7
2015-May-21 23:34N 51°17' E 001°51'1010.1
2015-May-21 22:33N 51°24' E 002°02'8 7.9
2015-May-21 21:33N 51°21' E 002°14'1010.2
2015-May-21 20:33N 51°23' E 002°30'1110.5
2015-May-21 19:33N 51°22' E 002°47'1312.9
2015-May-21 18:32N 51°24' E 003°08'1313.5
2015-May-21 17:34N 51°25' E 003°29'10 9.6
2015-May-21 16:34N 51°23' E 003°43'9 9.2
2015-May-21 15:33N 51°25' E 003°58'8 7.8
2015-May-21 14:33N 51°23' E 004°10'5 5.2
2015-May-21 13:33N 51°21' E 004°17'0 0.3
2015-May-21 12:33N 51°21' E 004°18'2 2.2
2015-May-21 11:33N 51°19' E 004°19'3 2.6
2015-May-21 10:33N 51°16' E 004°21'0 0.0
2015-May-21 09:33N 51°16' E 004°21'0 0.0
2015-May-21 08:33N 51°16' E 004°21'0 0.0
2015-May-21 07:33N 51°16' E 004°21'0 0.0
2015-May-21 06:33N 51°16' E 004°21'0 0.0
2015-May-21 05:30N 51°16' E 004°21'0 0.0
2015-May-21 04:33N 51°16' E 004°21'0 0.0
2015-May-21 03:30N 51°16' E 004°21'0 0.0
2015-May-21 02:33N 51°16' E 004°21'0 0.0
2015-May-21 01:33N 51°16' E 004°21'0 0.0
2015-May-21 00:33N 51°16' E 004°21'0 0.0
2015-May-20 23:33N 51°16' E 004°21'0 0.0
2015-May-20 22:33N 51°16' E 004°21'0 0.0
2015-May-20 21:33N 51°16' E 004°21'0 0.0
2015-May-20 20:33N 51°16' E 004°21'0 0.0
2015-May-20 19:33N 51°16' E 004°21'0 0.0
2015-May-20 18:33N 51°16' E 004°21'0 0.0
2015-May-20 17:33N 51°16' E 004°21'0 0.0
2015-May-20 16:33N 51°16' E 004°21'0 0.1
2015-May-20 15:33N 51°17' E 004°21'4 3.6
2015-May-20 14:34N 51°20' E 004°18'1 1.2
2015-May-20 13:34N 51°21' E 004°17'2 1.7
2015-May-20 12:34N 51°21' E 004°15'8 8.3
2015-May-20 11:33N 51°24' E 004°02'9 8.8
2015-May-20 10:33N 51°21' E 003°49'1010.3
2015-May-20 09:33N 51°25' E 003°34'1211.5
2015-May-20 08:33N 51°24' E 003°15'10 9.9
2015-May-20 07:33N 51°27' E 002°60'1313.1
2015-May-20 06:33N 51°38' E 003°11'9 1.0
2015-May-19 21:29N 51°46' E 003°17'12 1.4
2015-May-19 12:33N 51°58' E 003°20'2911.8
2015-May-19 10:07N 52°24' E 003°44'712.8
2015-May-19 09:33N 52°24' E 003°55'4 4.1
2015-May-19 08:31N 52°26' E 004°02'0 0.1
2015-May-19 07:07N 52°26' E 004°02'0 0.0
2015-May-19 06:25N 52°26' E 004°02'0 0.0
2015-May-19 02:31N 52°26' E 004°02'0 0.0
2015-May-19 00:07N 52°26' E 004°02'0 0.2
2015-May-18 23:31N 52°26' E 004°01'0 0.0
2015-May-18 22:31N 52°26' E 004°01'0 0.0
2015-May-18 21:28N 52°26' E 004°01'0 0.1
2015-May-18 20:31N 52°26' E 004°02'0 0.0
2015-May-18 15:16N 52°26' E 004°02'0 0.0
2015-May-18 14:31N 52°26' E 004°02'0 0.0
2015-May-18 13:31N 52°26' E 004°01'0 0.0
2015-May-18 12:31N 52°26' E 004°01'0 0.0
2015-May-18 11:31N 52°26' E 004°02'0 0.1
2015-May-18 10:31N 52°26' E 004°01'0 0.1
2015-May-18 09:31N 52°25' E 004°01'0 0.1
2015-May-18 08:31N 52°26' E 004°02'0 0.1
2015-May-18 07:31N 52°26' E 004°02'0 0.0
2015-May-18 06:31N 52°26' E 004°02'0 0.0
2015-May-18 05:31N 52°26' E 004°01'0 0.0
2015-May-18 04:31N 52°26' E 004°01'0 0.0
2015-May-18 03:31N 52°26' E 004°01'0 0.0
2015-May-18 02:31N 52°26' E 004°01'0 0.0
2015-May-18 01:31N 52°26' E 004°01'0 0.0
2015-May-18 00:31N 52°26' E 004°01'0 0.1
2015-May-17 23:28N 52°26' E 004°01'0 0.1
2015-May-17 22:31N 52°25' E 004°01'0 0.0
2015-May-17 21:31N 52°25' E 004°01'0 0.0
2015-May-17 20:31N 52°25' E 004°01'0 0.0
2015-May-17 19:31N 52°25' E 004°01'0 0.1
2015-May-17 18:31N 52°26' E 004°01'0 0.1
2015-May-17 17:31N 52°26' E 004°02'0 0.0
2015-May-17 16:31N 52°26' E 004°01'0 0.0
2015-May-17 15:31N 52°26' E 004°01'0 0.0
2015-May-17 14:31N 52°26' E 004°01'9 9.0
2015-May-17 13:29N 52°26' E 003°46'101 9.2
2015-May-17 02:33N 54°03' E 004°33'1212.4
2015-May-17 01:33N 54°05' E 004°54'1312.7
2015-May-17 00:33N 54°06' E 005°15'1312.6
2015-May-16 23:33N 54°08' E 005°36'4611.6
2015-May-16 19:32N 54°12' E 006°56'1110.7
2015-May-16 18:33N 54°12' E 007°14'1111.1
2015-May-16 17:33N 54°12' E 007°33'1211.6
2015-May-16 16:33N 54°06' E 007°50'1212.4
2015-May-16 15:33N 54°01' E 008°09'1413.8
2015-May-16 14:33N 53°58' E 008°32'1414.1
2015-May-16 13:33N 53°50' E 008°52'1010.4
2015-May-16 12:34N 53°54' E 009°09'2 2.4
2015-May-16 11:34N 53°55' E 009°12'7 7.2
2015-May-16 10:33N 54°02' E 009°18'7 7.4
2015-May-16 09:33N 54°09' E 009°21'7 7.4
2015-May-16 08:33N 54°12' E 009°33'7 7.4
2015-May-16 07:33N 54°18' E 009°41'7 7.1
2015-May-16 06:33N 54°22' E 009°50'8 7.6
2015-May-16 05:33N 54°22' E 010°03'3 3.2
2015-May-16 04:33N 54°22' E 010°09'4 4.0
2015-May-16 03:34N 54°25' E 010°13'1010.0
2015-May-16 02:33N 54°32' E 010°25'1111.2
2015-May-16 01:33N 54°35' E 010°44'1111.2
2015-May-16 00:33N 54°36' E 011°03'1110.8
2015-May-15 23:33N 54°33' E 011°21'1110.6
2015-May-15 22:34N 54°29' E 011°38'1010.0
2015-May-15 21:33N 54°26' E 011°55'1010.0
2015-May-15 20:33N 54°28' E 012°12'1111.1
2015-May-15 19:33N 54°38' E 012°19'1111.1
2015-May-15 18:33N 54°44' E 012°35'1511.0
2015-May-15 17:14N 54°47' E 013°00'811.4
2015-May-15 16:31N 54°47' E 013°14'1111.5
2015-May-15 15:33N 54°46' E 013°33'1111.5
2015-May-15 14:33N 54°43' E 013°52'1111.3
2015-May-15 13:33N 54°40' E 014°11'1111.2
2015-May-15 12:33N 54°38' E 014°30'1211.5
2015-May-15 11:33N 54°40' E 014°50'1111.2
2015-May-15 10:33N 54°41' E 015°09'1211.4
2015-May-15 09:32N 54°43' E 015°29'1111.3
2015-May-15 08:32N 54°45' E 015°48'1411.1
2015-May-15 07:18N 54°47' E 016°12'4711.8
2015-May-15 03:20N 54°56' E 017°32'2011.4
2015-May-15 01:33N 54°58' E 018°07'1111.1
2015-May-15 00:34N 54°58' E 018°26'1110.8
2015-May-14 23:34N 54°55' E 018°44'1111.4
2015-May-14 22:34N 54°48' E 018°59'1111.3
2015-May-14 21:34N 54°37' E 019°07'1211.9
2015-May-14 20:34N 54°26' E 018°58'9 9.0
2015-May-14 19:34N 54°24' E 018°43'0 0.0
2015-May-14 18:33N 54°24' E 018°43'0 0.0
2015-May-14 17:33N 54°24' E 018°43'0 0.0
2015-May-14 16:33N 54°24' E 018°43'0 0.0
2015-May-14 15:33N 54°24' E 018°43'0 0.0
2015-May-14 14:33N 54°24' E 018°43'0 0.0
2015-May-14 13:33N 54°24' E 018°43'0 0.0
2015-May-14 12:33N 54°24' E 018°43'0 0.0
2015-May-14 11:33N 54°24' E 018°43'0 0.0
2015-May-14 10:33N 54°24' E 018°43'0 0.0
2015-May-14 09:33N 54°24' E 018°43'0 0.0
2015-May-14 08:30N 54°24' E 018°43'0 0.0
2015-May-14 07:33N 54°24' E 018°43'0 0.0
2015-May-14 06:33N 54°24' E 018°43'0 0.0
2015-May-14 05:27N 54°24' E 018°43'0 0.0
2015-May-14 04:33N 54°24' E 018°43'  
Track history (hours):
 
Tides and Currents Weather Stations Pressure Air Temp Water Temp Dewpoint Dewpoint Depression Visibility Wind Speed Wind Dir Waves Ship Positions

Fure West

Last reported at 2015-May-24 04:33 UTC. Time now 2015-May-24 05:19 UTC.
Position N 49°28' E 000°07'.

Length 144 m; draft 6.1 m.

Type: Tanker. MMSI: 231775000.

Date/timePositionNaut miles runAvg speedWind from/ knotsBaromVisibWave heightAir tempDewpointWater temp
2015-May-24 04:33N 49°28' E 000°07'0 0.0
2015-May-24 03:33N 49°28' E 000°07'0 0.0
2015-May-24 02:33N 49°28' E 000°07'0 0.0
2015-May-24 01:33N 49°28' E 000°07'0 0.0
2015-May-24 00:33N 49°28' E 000°07'0 0.0
2015-May-23 23:33N 49°28' E 000°07'0 0.0
2015-May-23 22:33N 49°28' E 000°07'0 0.0
2015-May-23 21:33N 49°28' E 000°07'0 0.0
2015-May-23 20:33N 49°28' E 000°07'0 0.0
2015-May-23 19:33N 49°28' E 000°07'0 0.0
2015-May-23 18:30N 49°28' E 000°07'0 0.0
2015-May-23 17:33N 49°28' E 000°07'0 0.0
2015-May-23 16:33N 49°28' E 000°07'0 0.0
2015-May-23 15:33N 49°28' E 000°07'0 0.0
2015-May-23 14:33N 49°28' E 000°07'0 0.0
2015-May-23 13:33N 49°28' E 000°07'0 0.0
2015-May-23 12:33N 49°28' E 000°07'0 0.2
2015-May-23 11:33N 49°28' E 000°07'6 6.0
2015-May-23 10:33N 49°29' W 000°02'0 0.1
2015-May-23 09:33N 49°29' W 000°02'0 0.1
2015-May-23 08:33N 49°29' W 000°02'0 0.0
2015-May-23 07:33N 49°29' W 000°02'0 0.0
2015-May-23 06:33N 49°29' W 000°02'0 0.1
2015-May-23 05:31N 49°29' W 000°02'0 0.1
2015-May-23 04:31N 49°29' W 000°02'0 0.1
2015-May-23 03:31N 49°29' W 000°02'0 0.0
2015-May-23 02:31N 49°29' W 000°02'0 0.0
2015-May-23 01:31N 49°29' W 000°02'0 0.0
2015-May-23 00:31N 49°29' W 000°02'0 0.0
2015-May-22 23:31N 49°29' W 000°02'0 0.1
2015-May-22 22:31N 49°29' W 000°02'0 0.0
2015-May-22 21:31N 49°29' W 000°02'0 0.1
2015-May-22 20:31N 49°29' W 000°02'0 0.1
2015-May-22 19:31N 49°29' W 000°02'0 0.0
2015-May-22 18:31N 49°29' W 000°02'0 0.0
2015-May-22 17:31N 49°29' W 000°02'0 0.1
2015-May-22 16:31N 49°29' W 000°02'0 0.0
2015-May-22 15:31N 49°29' W 000°02'3 3.6
2015-May-22 14:33N 49°31' W 000°07'1413.7
2015-May-22 13:33N 49°45' W 000°10'47 9.2
2015-May-22 08:28N 50°30' E 000°08'1010.6
2015-May-22 07:34N 50°33' E 000°23'1111.0
2015-May-22 06:34N 50°37' E 000°39'1110.6
2015-May-22 05:33N 50°43' E 000°52'11 9.7
2015-May-22 04:28N 50°49' E 001°06'8 8.9
2015-May-22 03:33N 50°54' E 001°16'7 7.5
2015-May-22 02:34N 50°59' E 001°24'7 7.0
2015-May-22 01:34N 51°04' E 001°32'8 7.8
2015-May-22 00:34N 51°10' E 001°41'10 9.7
2015-May-21 23:34N 51°17' E 001°51'1010.1
2015-May-21 22:33N 51°24' E 002°02'8 7.9
2015-May-21 21:33N 51°21' E 002°14'1010.2
2015-May-21 20:33N 51°23' E 002°30'1110.5
2015-May-21 19:33N 51°22' E 002°47'1312.9
2015-May-21 18:32N 51°24' E 003°08'1313.5
2015-May-21 17:34N 51°25' E 003°29'10 9.6
2015-May-21 16:34N 51°23' E 003°43'9 9.2
2015-May-21 15:33N 51°25' E 003°58'8 7.8
2015-May-21 14:33N 51°23' E 004°10'5 5.2
2015-May-21 13:33N 51°21' E 004°17'0 0.3
2015-May-21 12:33N 51°21' E 004°18'2 2.2
2015-May-21 11:33N 51°19' E 004°19'3 2.6
2015-May-21 10:33N 51°16' E 004°21'0 0.0
2015-May-21 09:33N 51°16' E 004°21'0 0.0
2015-May-21 08:33N 51°16' E 004°21'0 0.0
2015-May-21 07:33N 51°16' E 004°21'0 0.0
2015-May-21 06:33N 51°16' E 004°21'0 0.0
2015-May-21 05:30N 51°16' E 004°21'0 0.0
2015-May-21 04:33N 51°16' E 004°21'0 0.0
2015-May-21 03:30N 51°16' E 004°21'0 0.0
2015-May-21 02:33N 51°16' E 004°21'0 0.0
2015-May-21 01:33N 51°16' E 004°21'0 0.0
2015-May-21 00:33N 51°16' E 004°21'0 0.0
2015-May-20 23:33N 51°16' E 004°21'0 0.0
2015-May-20 22:33N 51°16' E 004°21'0 0.0
2015-May-20 21:33N 51°16' E 004°21'0 0.0
2015-May-20 20:33N 51°16' E 004°21'0 0.0
2015-May-20 19:33N 51°16' E 004°21'0 0.0
2015-May-20 18:33N 51°16' E 004°21'0 0.0
2015-May-20 17:33N 51°16' E 004°21'0 0.0
2015-May-20 16:33N 51°16' E 004°21'0 0.1
2015-May-20 15:33N 51°17' E 004°21'4 3.6
2015-May-20 14:34N 51°20' E 004°18'1 1.2
2015-May-20 13:34N 51°21' E 004°17'2 1.7
2015-May-20 12:34N 51°21' E 004°15'8 8.3
2015-May-20 11:33N 51°24' E 004°02'9 8.8
2015-May-20 10:33N 51°21' E 003°49'1010.3
2015-May-20 09:33N 51°25' E 003°34'1211.5
2015-May-20 08:33N 51°24' E 003°15'10 9.9
2015-May-20 07:33N 51°27' E 002°60'1313.1
2015-May-20 06:33N 51°38' E 003°11'9 1.0
2015-May-19 21:29N 51°46' E 003°17'12 1.4
2015-May-19 12:33N 51°58' E 003°20'2911.8
2015-May-19 10:07N 52°24' E 003°44'712.8
2015-May-19 09:33N 52°24' E 003°55'4 4.1
2015-May-19 08:31N 52°26' E 004°02'0 0.1
2015-May-19 07:07N 52°26' E 004°02'0 0.0
2015-May-19 06:25N 52°26' E 004°02'0 0.0
2015-May-19 02:31N 52°26' E 004°02'0 0.0
2015-May-19 00:07N 52°26' E 004°02'0 0.2
2015-May-18 23:31N 52°26' E 004°01'0 0.0
2015-May-18 22:31N 52°26' E 004°01'0 0.0
2015-May-18 21:28N 52°26' E 004°01'0 0.1
2015-May-18 20:31N 52°26' E 004°02'0 0.0
2015-May-18 15:16N 52°26' E 004°02'0 0.0
2015-May-18 14:31N 52°26' E 004°02'0 0.0
2015-May-18 13:31N 52°26' E 004°01'0 0.0
2015-May-18 12:31N 52°26' E 004°01'0 0.0
2015-May-18 11:31N 52°26' E 004°02'0 0.1
2015-May-18 10:31N 52°26' E 004°01'0 0.1
2015-May-18 09:31N 52°25' E 004°01'0 0.1
2015-May-18 08:31N 52°26' E 004°02'0 0.1
2015-May-18 07:31N 52°26' E 004°02'0 0.0
2015-May-18 06:31N 52°26' E 004°02'0 0.0
2015-May-18 05:31N 52°26' E 004°01'0 0.0
2015-May-18 04:31N 52°26' E 004°01'0 0.0
2015-May-18 03:31N 52°26' E 004°01'0 0.0
2015-May-18 02:31N 52°26' E 004°01'0 0.0
2015-May-18 01:31N 52°26' E 004°01'0 0.0
2015-May-18 00:31N 52°26' E 004°01'0 0.1
2015-May-17 23:28N 52°26' E 004°01'0 0.1
2015-May-17 22:31N 52°25' E 004°01'0 0.0
2015-May-17 21:31N 52°25' E 004°01'0 0.0
2015-May-17 20:31N 52°25' E 004°01'0 0.0
2015-May-17 19:31N 52°25' E 004°01'0 0.1
2015-May-17 18:31N 52°26' E 004°01'0 0.1
2015-May-17 17:31N 52°26' E 004°02'0 0.0
2015-May-17 16:31N 52°26' E 004°01'0 0.0
2015-May-17 15:31N 52°26' E 004°01'0 0.0
2015-May-17 14:31N 52°26' E 004°01'9 9.0
2015-May-17 13:29N 52°26' E 003°46'101 9.2
2015-May-17 02:33N 54°03' E 004°33'1212.4
2015-May-17 01:33N 54°05' E 004°54'1312.7
2015-May-17 00:33N 54°06' E 005°15'1312.6
2015-May-16 23:33N 54°08' E 005°36'4611.6
2015-May-16 19:32N 54°12' E 006°56'1110.7
2015-May-16 18:33N 54°12' E 007°14'1111.1
2015-May-16 17:33N 54°12' E 007°33'1211.6
2015-May-16 16:33N 54°06' E 007°50'1212.4
2015-May-16 15:33N 54°01' E 008°09'1413.8
2015-May-16 14:33N 53°58' E 008°32'1414.1
2015-May-16 13:33N 53°50' E 008°52'1010.4
2015-May-16 12:34N 53°54' E 009°09'2 2.4
2015-May-16 11:34N 53°55' E 009°12'7 7.2
2015-May-16 10:33N 54°02' E 009°18'7 7.4
2015-May-16 09:33N 54°09' E 009°21'7 7.4
2015-May-16 08:33N 54°12' E 009°33'7 7.4
2015-May-16 07:33N 54°18' E 009°41'7 7.1
2015-May-16 06:33N 54°22' E 009°50'8 7.6
2015-May-16 05:33N 54°22' E 010°03'3 3.2
2015-May-16 04:33N 54°22' E 010°09'4 4.0
2015-May-16 03:34N 54°25' E 010°13'1010.0
2015-May-16 02:33N 54°32' E 010°25'1111.2
2015-May-16 01:33N 54°35' E 010°44'1111.2
2015-May-16 00:33N 54°36' E 011°03'1110.8
2015-May-15 23:33N 54°33' E 011°21'1110.6
2015-May-15 22:34N 54°29' E 011°38'1010.0
2015-May-15 21:33N 54°26' E 011°55'1010.0
2015-May-15 20:33N 54°28' E 012°12'1111.1
2015-May-15 19:33N 54°38' E 012°19'1111.1
2015-May-15 18:33N 54°44' E 012°35'1511.0
2015-May-15 17:14N 54°47' E 013°00'811.4
2015-May-15 16:31N 54°47' E 013°14'1111.5
2015-May-15 15:33N 54°46' E 013°33'1111.5
2015-May-15 14:33N 54°43' E 013°52'1111.3
2015-May-15 13:33N 54°40' E 014°11'1111.2
2015-May-15 12:33N 54°38' E 014°30'1211.5
2015-May-15 11:33N 54°40' E 014°50'1111.2
2015-May-15 10:33N 54°41' E 015°09'1211.4
2015-May-15 09:32N 54°43' E 015°29'1111.3
2015-May-15 08:32N 54°45' E 015°48'1411.1
2015-May-15 07:18N 54°47' E 016°12'4711.8
2015-May-15 03:20N 54°56' E 017°32'2011.4
2015-May-15 01:33N 54°58' E 018°07'1111.1
2015-May-15 00:34N 54°58' E 018°26'1110.8
2015-May-14 23:34N 54°55' E 018°44'1111.4
2015-May-14 22:34N 54°48' E 018°59'1111.3
2015-May-14 21:34N 54°37' E 019°07'1211.9
2015-May-14 20:34N 54°26' E 018°58'9 9.0
2015-May-14 19:34N 54°24' E 018°43'0 0.0
2015-May-14 18:33N 54°24' E 018°43'0 0.0
2015-May-14 17:33N 54°24' E 018°43'0 0.0
2015-May-14 16:33N 54°24' E 018°43'0 0.0
2015-May-14 15:33N 54°24' E 018°43'0 0.0
2015-May-14 14:33N 54°24' E 018°43'0 0.0
2015-May-14 13:33N 54°24' E 018°43'0 0.0
2015-May-14 12:33N 54°24' E 018°43'0 0.0
2015-May-14 11:33N 54°24' E 018°43'0 0.0
2015-May-14 10:33N 54°24' E 018°43'0 0.0
2015-May-14 09:33N 54°24' E 018°43'0 0.0
2015-May-14 08:30N 54°24' E 018°43'0 0.0
2015-May-14 07:33N 54°24' E 018°43'0 0.0
2015-May-14 06:33N 54°24' E 018°43'0 0.0
2015-May-14 05:27N 54°24' E 018°43'0 0.0
2015-May-14 04:33N 54°24' E 018°43'  

Dump ship's entire track history